首页
METAR-TAF:

METAR-TAF

机场 :

Chicago Rockford International Airport

罗克福德, 伊利诺伊州, 美国

纬度: 42-11-34N, 经度: 089-05-36W, 海拔: 224米

当前天气观测

该预报发布于1小时和10分钟前的08:54 UTC
风速4节,风向东转东南
温度 20°C
湿度 83%
气压 1014 hPa
能見度: 16.1公里
多云层高于18000英尺

METAR: KRFD 260854Z 12004KT 10SM BKN180 20/17 A2995 RMK AO2 SLP137 T02000167 $

时间: 05:04 (10:04 UTC)

预报

该预报发布于3小时和29分钟前的06:35 UTC
预报有效从26日的 07点(UTC)到 27日的 06点(UTC)
风速5节,风向南转南东
能見度: 10公里
散云层高于5000英尺
多云层高于12000英尺
短暂存在
从 26日的 07点(UTC)到 26日的 09点(UTC)
能見度: 9.7公里
多云层高于5000英尺
小阵雨
从 26日的 1700点(UTC)
风速14节,风向,有时为24节阵风
能見度: 10公里
散云层高于4500英尺
多云层高于15000英尺
几率 30%
从 26日的 18点(UTC)到 26日的 24点(UTC)
能見度: 6.4公里
多云层高于4000英尺, 积雨云.
雷暴, 雨
从 27日的 0100点(UTC)
风速10节,风向
能見度: 10公里
少量云层高于5000英尺
散云层高于25000英尺

TAF: KRFD 260635Z 2607/2706 16005KT P6SM SCT050 BKN120 TEMPO 2607/2609 6SM -SHRA BKN050 FM261700 17014G24KT P6SM SCT045 BKN150 PROB30 2618/2624 4SM TSRA BKN040CB FM270100 17010KT P6SM FEW050 SCT250

超过4000个机场的气象观测和天气预报(METAR&TAF报告)。

可查询的气象台以黄色和红色小点在地图上表示。

将鼠标移到小点上方,可查看气象台名称。

然后点击查看天气观测和预报。

如需切换地图:点击带黑十字的绿色按钮放大地图;点击带横线的绿色按钮缩小地图;或者点击绿色箭头查看邻近地区的地图。


METAR-TAF: